Time;durP1;ratioP1;P1;durP2;ratioP2;P2;SDS_P1;SDS_P2;PMS_P1;PMS_P2;Temp;Humidity;BMP_temperature;BMP_pressure;BME280_temperature;BME280_humidity;BME280_pressure;Samples;Min_cycle;Max_cycle;Signal;HPM_P1;HPM_P2
2022/12/11 00:00:05;;;;;;;14.77;11.10;;;2.90;88.80;;;;;;940639;149;27341;-81
2022/12/11 00:02:31;;;;;;;15.87;12.03;;;2.80;88.90;;;;;;941403;148;27625;-81
2022/12/11 00:04:58;;;;;;;14.23;11.50;;;2.80;88.90;;;;;;939662;148;27386;-81
2022/12/11 00:07:24;;;;;;;16.20;11.67;;;2.70;88.90;;;;;;938330;148;27421;-81
2022/12/11 00:09:51;;;;;;;15.50;11.87;;;2.70;89.10;;;;;;938097;148;27423;-81
2022/12/11 00:12:18;;;;;;;14.33;11.47;;;2.70;89.20;;;;;;937915;148;27330;-81
2022/12/11 00:14:44;;;;;;;17.43;11.10;;;2.60;89.40;;;;;;935189;149;27311;-81
2022/12/11 00:17:11;;;;;;;15.43;11.53;;;2.70;89.70;;;;;;935933;148;27443;-81
2022/12/11 00:19:37;;;;;;;14.40;10.13;;;2.60;89.80;;;;;;937690;151;27365;-81
2022/12/11 00:22:04;;;;;;;13.00;10.60;;;2.60;89.80;;;;;;938996;148;27473;-81
2022/12/11 00:24:30;;;;;;;14.47;11.90;;;2.60;89.90;;;;;;937018;148;27710;-81
2022/12/11 00:26:57;;;;;;;12.47;10.03;;;2.60;90.00;;;;;;937677;148;27346;-81
2022/12/11 00:29:24;;;;;;;13.60;11.27;;;2.50;90.00;;;;;;937711;151;27320;-81
2022/12/11 00:31:50;;;;;;;12.97;10.33;;;2.50;90.10;;;;;;938391;148;27447;-81
2022/12/11 00:34:17;;;;;;;13.63;10.43;;;2.50;90.10;;;;;;937970;148;27390;-81
2022/12/11 00:36:43;;;;;;;14.80;10.87;;;2.50;90.10;;;;;;935680;151;27350;-81
2022/12/11 00:39:10;;;;;;;13.20;10.50;;;2.50;90.20;;;;;;936727;151;27397;-81
2022/12/11 00:41:37;;;;;;;13.00;10.70;;;2.50;90.30;;;;;;937203;148;27323;-81
2022/12/11 00:44:03;;;;;;;13.90;10.80;;;2.50;90.40;;;;;;936282;148;27396;-81
2022/12/11 00:46:30;;;;;;;15.07;11.40;;;2.50;90.50;;;;;;938144;149;27456;-81
2022/12/11 00:48:57;;;;;;;14.03;10.60;;;2.50;90.50;;;;;;936836;148;28336;-81
2022/12/11 00:51:24;;;;;;;13.27;10.87;;;2.50;90.50;;;;;;941535;145;27305;-80
2022/12/11 00:53:50;;;;;;;13.37;10.63;;;2.50;90.50;;;;;;939170;148;27319;-80
2022/12/11 00:56:16;;;;;;;15.57;10.87;;;2.50;90.50;;;;;;939858;148;27266;-80
2022/12/11 00:58:43;;;;;;;16.60;11.03;;;2.50;90.50;;;;;;939619;148;27376;-81
2022/12/11 01:01:09;;;;;;;13.67;11.33;;;2.50;90.60;;;;;;937185;151;27461;-81
2022/12/11 01:03:36;;;;;;;15.13;11.77;;;2.50;90.70;;;;;;937676;151;27303;-81
2022/12/11 01:06:03;;;;;;;14.20;10.60;;;2.50;90.80;;;;;;938794;151;27269;-81
2022/12/11 01:08:29;;;;;;;13.10;11.20;;;2.60;90.90;;;;;;928246;151;27526;-81
2022/12/11 01:11:04;;;;;;;15.90;11.30;;;2.60;90.80;;;;;;909604;153;27858;-81
2022/12/11 01:13:31;;;;;;;14.30;10.63;;;2.60;90.80;;;;;;946173;146;27433;-81
2022/12/11 01:15:57;;;;;;;13.97;10.47;;;2.60;90.80;;;;;;916631;152;27414;-81
2022/12/11 01:18:24;;;;;;;14.20;11.10;;;2.60;90.80;;;;;;942828;146;27417;-81
2022/12/11 01:20:51;;;;;;;14.23;11.67;;;2.70;90.80;;;;;;945016;146;27268;-81
2022/12/11 01:23:17;;;;;;;16.43;11.73;;;2.70;90.70;;;;;;946353;146;27331;-81
2022/12/11 01:25:44;;;;;;;14.47;11.27;;;2.70;90.60;;;;;;944291;146;27485;-81
2022/12/11 01:28:10;;;;;;;17.03;11.47;;;2.70;90.50;;;;;;943218;146;27277;-81
2022/12/11 01:30:37;;;;;;;14.33;11.60;;;2.70;90.40;;;;;;943948;146;27375;-81
2022/12/11 01:33:04;;;;;;;15.50;12.07;;;2.70;90.30;;;;;;944385;146;27291;-81
2022/12/11 01:35:30;;;;;;;14.70;12.33;;;2.70;90.20;;;;;;945877;146;27375;-80
2022/12/11 01:37:58;;;;;;;17.17;12.20;;;2.70;90.20;;;;;;921673;149;27496;-81
2022/12/11 01:40:23;;;;;;;16.90;11.53;;;2.70;90.20;;;;;;945526;146;27330;-81
2022/12/11 01:42:50;;;;;;;17.00;12.47;;;2.60;90.30;;;;;;945077;146;27719;-81
2022/12/11 01:45:32;;;;;;;13.47;11.23;;;2.60;90.20;;;;;;945793;146;27282;-81
2022/12/11 01:48:04;;;;;;;14.73;11.33;;;2.60;90.30;;;;;;943733;146;27270;-80
2022/12/11 01:50:30;;;;;;;14.53;11.23;;;2.60;90.30;;;;;;920040;152;27397;-81
2022/12/11 01:52:57;;;;;;;17.77;12.43;;;2.60;90.30;;;;;;943719;146;27277;-81
2022/12/11 01:55:23;;;;;;;13.70;11.10;;;2.60;90.20;;;;;;922794;152;27442;-81
2022/12/11 01:57:50;;;;;;;14.20;11.63;;;2.60;90.20;;;;;;925099;149;27372;-81
2022/12/11 02:00:17;;;;;;;15.60;12.03;;;2.60;90.30;;;;;;947409;146;27304;-81
2022/12/11 02:02:43;;;;;;;14.77;11.77;;;2.50;90.30;;;;;;945136;146;27437;-81
2022/12/11 02:05:10;;;;;;;14.90;11.23;;;2.50;90.40;;;;;;947041;146;27394;-81
2022/12/11 02:07:45;;;;;;;14.27;11.17;;;2.50;90.40;;;;;;945947;146;27273;-81
2022/12/11 02:10:12;;;;;;;16.23;11.13;;;2.50;90.70;;;;;;941547;147;27389;-80
2022/12/11 02:12:50;;;;;;;14.60;11.63;;;2.50;90.50;;;;;;921050;150;27404;-80
2022/12/11 02:15:25;;;;;;;14.47;11.47;;;2.50;90.60;;;;;;943028;147;27458;-80
2022/12/11 02:17:55;;;;;;;12.53;10.53;;;2.50;90.60;;;;;;924867;150;27320;-81
2022/12/11 02:20:36;;;;;;;15.63;12.20;;;2.50;90.70;;;;;;925004;149;27338;-81
2022/12/11 02:23:12;;;;;;;14.57;10.47;;;2.50;90.80;;;;;;924142;150;27347;-81
2022/12/11 02:25:57;;;;;;;15.93;11.73;;;2.50;90.80;;;;;;925265;150;27355;-81
2022/12/11 02:28:44;;;;;;;15.10;11.97;;;2.60;90.90;;;;;;930993;149;27329;-81
2022/12/11 02:31:20;;;;;;;14.30;10.77;;;2.60;90.90;;;;;;923405;150;27375;-81
2022/12/11 02:33:46;;;;;;;14.73;11.20;;;2.60;90.80;;;;;;919450;150;27373;-81
2022/12/11 02:36:13;;;;;;;15.50;11.63;;;2.60;90.70;;;;;;927550;149;27296;-81
2022/12/11 02:38:40;;;;;;;17.17;13.13;;;2.60;90.80;;;;;;918187;150;27346;-81
2022/12/11 02:41:06;;;;;;;15.63;12.47;;;2.60;90.70;;;;;;934090;149;27365;-81
2022/12/11 02:43:33;;;;;;;13.37;10.90;;;2.70;90.70;;;;;;935272;149;27303;-80
2022/12/11 02:45:59;;;;;;;16.27;10.83;;;2.70;90.60;;;;;;933098;149;27399;-81
2022/12/11 02:48:26;;;;;;;16.13;11.30;;;2.70;90.50;;;;;;931465;149;27423;-81
2022/12/11 02:50:52;;;;;;;16.00;11.40;;;2.70;90.50;;;;;;935179;149;27350;-81
2022/12/11 02:53:19;;;;;;;15.37;11.00;;;2.70;90.40;;;;;;936134;149;27395;-81
2022/12/11 02:55:46;;;;;;;17.50;12.13;;;2.70;90.30;;;;;;935115;149;27271;-81
2022/12/11 02:58:18;;;;;;;15.87;11.60;;;2.70;90.20;;;;;;934249;149;27338;-81
2022/12/11 03:00:45;;;;;;;15.07;10.93;;;2.70;90.20;;;;;;932370;149;27318;-81
2022/12/11 03:03:11;;;;;;;13.77;11.07;;;2.70;90.10;;;;;;933389;148;27434;-81
2022/12/11 03:05:38;;;;;;;16.33;11.97;;;2.70;90.20;;;;;;935150;149;27454;-81
2022/12/11 03:08:04;;;;;;;14.53;11.00;;;2.70;90.20;;;;;;934169;149;27319;-80
2022/12/11 03:10:31;;;;;;;16.73;11.23;;;2.70;90.20;;;;;;930576;149;27708;-81
2022/12/11 03:12:58;;;;;;;14.87;11.93;;;2.70;90.20;;;;;;923610;150;27281;-80
2022/12/11 03:15:29;;;;;;;13.83;11.23;;;2.70;90.30;;;;;;938047;149;27380;-80
2022/12/11 03:18:02;;;;;;;15.50;11.43;;;2.70;90.40;;;;;;925259;150;28719;-80
2022/12/11 03:20:34;;;;;;;17.37;12.77;;;2.70;90.30;;;;;;902739;154;27296;-80
2022/12/11 03:23:10;;;;;;;14.87;11.77;;;2.60;90.30;;;;;;932236;148;27313;-80
2022/12/11 03:25:45;;;;;;;16.37;11.43;;;2.60;90.30;;;;;;932839;148;27356;-80
2022/12/11 03:28:21;;;;;;;15.27;11.50;;;2.60;90.20;;;;;;943472;147;27286;-80
2022/12/11 03:30:48;;;;;;;11.53;9.63;;;2.60;90.20;;;;;;925844;150;27297;-80
2022/12/11 03:33:14;;;;;;;16.03;11.83;;;2.60;90.20;;;;;;940216;147;27409;-80
2022/12/11 03:35:40;;;;;;;14.47;10.57;;;2.60;90.20;;;;;;924084;150;27429;-80
2022/12/11 03:38:13;;;;;;;14.27;11.30;;;2.60;90.30;;;;;;917653;151;27795;-80
2022/12/11 03:40:39;;;;;;;12.43;9.87;;;2.60;90.30;;;;;;933256;149;27294;-80
2022/12/11 03:43:06;;;;;;;14.13;10.83;;;2.50;90.30;;;;;;923709;150;27420;-80
2022/12/11 03:45:32;;;;;;;13.87;9.70;;;2.50;90.40;;;;;;940462;147;27364;-80
2022/12/11 03:47:59;;;;;;;12.93;10.30;;;2.50;90.30;;;;;;917430;150;27444;-80
2022/12/11 03:50:25;;;;;;;13.43;9.57;;;2.50;90.20;;;;;;933373;148;27387;-80
2022/12/11 03:52:52;;;;;;;16.03;10.60;;;2.50;90.20;;;;;;934220;149;27346;-80
2022/12/11 03:55:19;;;;;;;12.57;9.90;;;2.50;90.10;;;;;;933375;149;27368;-80
2022/12/11 03:57:45;;;;;;;14.30;10.40;;;2.50;90.20;;;;;;931883;152;27369;-80
2022/12/11 04:00:12;;;;;;;11.70;10.23;;;2.50;90.40;;;;;;934646;148;27441;-80
2022/12/11 04:02:38;;;;;;;13.50;10.97;;;2.40;90.40;;;;;;933616;148;27373;-80
2022/12/11 04:05:05;;;;;;;13.20;9.30;;;2.40;90.40;;;;;;933972;149;27296;-80
2022/12/11 04:07:32;;;;;;;13.50;9.50;;;2.40;90.50;;;;;;932056;148;27301;-80
2022/12/11 04:09:58;;;;;;;13.83;9.97;;;2.40;90.50;;;;;;934727;148;27401;-80
2022/12/11 04:12:25;;;;;;;14.07;10.40;;;2.40;90.60;;;;;;941373;147;27260;-80
2022/12/11 04:15:03;;;;;;;14.60;10.70;;;2.50;90.70;;;;;;933791;148;27369;-80
2022/12/11 04:25:43;;;;;;;16.03;11.47;;;2.50;90.70;;;;;;934532;149;27482;-79
2022/12/11 04:28:10;;;;;;;16.03;11.40;;;2.50;90.70;;;;;;934200;149;27474;-79
2022/12/11 04:30:37;;;;;;;14.30;11.50;;;2.50;90.80;;;;;;935932;149;27466;-79
2022/12/11 04:33:03;;;;;;;14.40;11.67;;;2.50;90.70;;;;;;933151;149;27337;-79
2022/12/11 04:35:30;;;;;;;15.17;11.03;;;2.50;90.70;;;;;;935068;149;27423;-79
2022/12/11 04:37:57;;;;;;;16.27;11.33;;;2.50;90.80;;;;;;933859;149;27288;-79
2022/12/11 04:40:23;;;;;;;14.37;11.10;;;2.60;90.90;;;;;;934118;148;27377;-79
2022/12/11 04:42:50;;;;;;;15.00;11.67;;;2.60;90.90;;;;;;934929;149;27459;-79
2022/12/11 04:45:16;;;;;;;15.63;11.07;;;2.60;90.90;;;;;;933672;148;27258;-79
2022/12/11 04:47:43;;;;;;;15.10;11.93;;;2.60;90.80;;;;;;928931;150;27810;-79
2022/12/11 04:50:09;;;;;;;15.07;11.90;;;2.60;90.80;;;;;;924657;150;27307;-79
2022/12/11 04:52:36;;;;;;;17.20;11.83;;;2.60;90.80;;;;;;925519;149;27370;-79
2022/12/11 04:55:05;;;;;;;15.70;11.43;;;2.70;90.90;;;;;;940986;147;27376;-79
2022/12/11 04:57:32;;;;;;;13.37;10.90;;;2.70;90.90;;;;;;936819;149;27736;-79
2022/12/11 04:59:58;;;;;;;14.70;11.47;;;2.70;90.90;;;;;;918753;150;27318;-79
2022/12/11 05:02:25;;;;;;;14.60;11.23;;;2.70;90.90;;;;;;940838;147;27386;-79
2022/12/11 05:04:51;;;;;;;16.80;11.40;;;2.70;90.90;;;;;;940861;147;27871;-79
2022/12/11 05:07:18;;;;;;;15.47;12.47;;;2.70;90.90;;;;;;918325;150;27389;-79
2022/12/11 05:09:45;;;;;;;16.03;12.20;;;2.70;90.90;;;;;;941129;147;27972;-79
2022/12/11 05:12:11;;;;;;;13.70;11.27;;;2.70;90.80;;;;;;922838;149;27419;-80
2022/12/11 05:14:38;;;;;;;16.07;12.40;;;2.70;90.70;;;;;;924645;149;27344;-80
2022/12/11 05:17:04;;;;;;;14.70;11.13;;;2.70;90.70;;;;;;923198;149;27367;-80
2022/12/11 05:19:31;;;;;;;14.53;11.70;;;2.70;90.70;;;;;;925017;151;27492;-80
2022/12/11 05:21:57;;;;;;;16.73;12.93;;;2.70;90.80;;;;;;915657;152;27409;-80
2022/12/11 05:24:24;;;;;;;15.30;11.87;;;2.70;90.80;;;;;;916171;152;27346;-80
2022/12/11 05:26:51;;;;;;;16.80;12.60;;;2.60;90.80;;;;;;924336;150;27378;-80
2022/12/11 05:29:17;;;;;;;15.37;11.43;;;2.60;90.90;;;;;;926215;149;27328;-80
2022/12/11 05:31:44;;;;;;;15.20;11.70;;;2.60;90.90;;;;;;920506;152;27407;-80
2022/12/11 05:34:10;;;;;;;16.50;12.77;;;2.60;90.90;;;;;;920633;151;27425;-80
2022/12/11 05:36:37;;;;;;;15.10;11.60;;;2.60;90.90;;;;;;921699;152;27462;-80
2022/12/11 05:39:04;;;;;;;14.40;11.80;;;2.60;91.00;;;;;;921387;152;27357;-80
2022/12/11 05:41:31;;;;;;;15.70;11.23;;;2.60;91.00;;;;;;918117;152;27408;-80
2022/12/11 05:43:57;;;;;;;15.20;11.80;;;2.60;91.10;;;;;;917386;152;27428;-80
2022/12/11 05:46:23;;;;;;;15.30;11.67;;;2.60;91.10;;;;;;918974;152;27796;-80
2022/12/11 05:48:50;;;;;;;13.37;11.10;;;2.60;91.10;;;;;;920631;152;27347;-80
2022/12/11 05:51:17;;;;;;;15.13;11.93;;;2.60;91.10;;;;;;920792;151;27477;-80
2022/12/11 05:53:43;;;;;;;17.57;12.77;;;2.60;91.10;;;;;;918788;152;27381;-80
2022/12/11 05:56:10;;;;;;;15.97;11.17;;;2.60;91.30;;;;;;918551;152;27701;-80
2022/12/11 05:58:36;;;;;;;17.63;12.57;;;2.60;91.30;;;;;;917476;154;27416;-80
2022/12/11 06:01:03;;;;;;;17.47;12.67;;;2.60;91.30;;;;;;920117;152;27434;-80
2022/12/11 06:03:29;;;;;;;16.23;12.30;;;2.70;91.40;;;;;;925252;149;27882;-80
2022/12/11 06:05:56;;;;;;;14.93;12.10;;;2.70;91.40;;;;;;922630;149;27331;-80
2022/12/11 06:08:23;;;;;;;18.07;13.37;;;2.70;91.40;;;;;;924016;151;27399;-80
2022/12/11 06:10:49;;;;;;;16.97;13.37;;;2.70;91.40;;;;;;913849;152;27400;-80
2022/12/11 06:13:16;;;;;;;16.67;12.97;;;2.70;91.40;;;;;;955587;145;27461;-80
2022/12/11 06:15:42;;;;;;;17.57;13.70;;;2.70;91.40;;;;;;956653;145;27397;-80
2022/12/11 06:18:09;;;;;;;18.00;12.97;;;2.70;91.50;;;;;;952056;147;27264;-80
2022/12/11 06:20:36;;;;;;;17.63;14.03;;;2.70;91.50;;;;;;948828;147;28229;-80
2022/12/11 06:23:02;;;;;;;20.63;13.83;;;2.70;91.60;;;;;;955290;145;27382;-80
2022/12/11 06:25:29;;;;;;;16.83;13.40;;;2.70;91.60;;;;;;959270;145;27315;-80
2022/12/11 06:27:55;;;;;;;19.53;13.80;;;2.70;91.60;;;;;;957876;145;27340;-80
2022/12/11 06:30:22;;;;;;;20.97;13.60;;;2.70;91.60;;;;;;941504;148;28110;-80
2022/12/11 06:32:49;;;;;;;16.93;12.97;;;2.70;91.50;;;;;;957624;145;27338;-80
2022/12/11 06:35:15;;;;;;;18.00;13.20;;;2.70;91.50;;;;;;944324;148;27441;-80
2022/12/11 06:37:42;;;;;;;16.67;12.67;;;2.70;91.60;;;;;;958094;145;27483;-80
2022/12/11 06:40:08;;;;;;;19.27;13.30;;;2.60;91.70;;;;;;943033;147;27887;-80
2022/12/11 06:42:35;;;;;;;16.63;12.77;;;2.60;91.70;;;;;;957147;145;27351;-81
2022/12/11 06:45:02;;;;;;;17.70;13.00;;;2.60;91.70;;;;;;945748;148;27289;-80
2022/12/11 06:47:28;;;;;;;19.13;13.27;;;2.60;91.70;;;;;;956480;145;27387;-80
2022/12/11 06:49:55;;;;;;;20.00;14.60;;;2.70;91.80;;;;;;957271;145;27443;-80
2022/12/11 06:52:21;;;;;;;19.83;13.57;;;2.70;91.80;;;;;;957485;145;27415;-80
2022/12/11 06:54:48;;;;;;;17.83;13.80;;;2.70;91.80;;;;;;945421;147;27300;-80
2022/12/11 06:57:14;;;;;;;18.60;13.60;;;2.70;91.80;;;;;;956305;145;27420;-80
2022/12/11 06:59:41;;;;;;;20.03;13.67;;;2.70;92.30;;;;;;950640;146;27333;-80
2022/12/11 07:02:08;;;;;;;19.80;13.90;;;2.70;92.00;;;;;;944168;147;27346;-80
2022/12/11 07:04:34;;;;;;;18.77;14.00;;;2.70;92.10;;;;;;959669;145;27527;-80
2022/12/11 07:07:01;;;;;;;17.23;13.80;;;2.70;92.20;;;;;;942789;148;27405;-80
2022/12/11 07:09:28;;;;;;;17.13;12.67;;;2.80;92.20;;;;;;932599;145;27387;-80
2022/12/11 07:11:54;;;;;;;17.97;13.23;;;2.80;92.20;;;;;;915508;153;27366;-79
2022/12/11 07:14:21;;;;;;;17.50;13.33;;;2.80;92.20;;;;;;916322;153;27426;-79
2022/12/11 07:16:47;;;;;;;17.33;13.03;;;2.80;92.10;;;;;;917043;153;27398;-79
2022/12/11 07:19:14;;;;;;;18.03;13.70;;;2.80;92.10;;;;;;917007;153;27425;-79
2022/12/11 07:21:40;;;;;;;14.67;12.00;;;2.80;92.10;;;;;;917187;153;27425;-79
2022/12/11 07:24:07;;;;;;;17.73;13.17;;;2.80;92.00;;;;;;916677;153;27316;-79
2022/12/11 07:26:34;;;;;;;16.47;12.90;;;2.90;91.90;;;;;;916632;154;27437;-79
2022/12/11 07:29:00;;;;;;;17.37;13.47;;;2.90;92.00;;;;;;914794;152;27467;-79
2022/12/11 07:31:27;;;;;;;16.00;12.93;;;2.90;91.90;;;;;;900252;155;27499;-79
2022/12/11 07:33:53;;;;;;;17.20;12.53;;;2.90;92.00;;;;;;911470;154;27313;-79
2022/12/11 07:36:20;;;;;;;16.23;12.23;;;2.90;92.00;;;;;;912899;154;27842;-79
2022/12/11 07:38:46;;;;;;;16.53;12.70;;;2.90;92.00;;;;;;912122;154;27404;-79
2022/12/11 07:41:13;;;;;;;15.97;12.20;;;2.90;92.00;;;;;;911826;154;27878;-79
2022/12/11 07:43:40;;;;;;;16.90;13.00;;;2.90;92.10;;;;;;911950;154;27485;-79
2022/12/11 07:46:06;;;;;;;15.93;12.97;;;2.90;92.10;;;;;;911973;154;27385;-79
2022/12/11 07:48:36;;;;;;;16.90;12.97;;;3.00;92.00;;;;;;912338;154;27407;-80
2022/12/11 07:51:11;;;;;;;18.57;13.47;;;3.00;92.00;;;;;;911210;154;27354;-80
2022/12/11 07:53:37;;;;;;;20.50;13.43;;;3.00;92.00;;;;;;911230;154;27383;-80
2022/12/11 07:56:04;;;;;;;18.60;13.73;;;3.00;92.00;;;;;;911295;154;27391;-80
2022/12/11 07:58:30;;;;;;;19.10;13.50;;;3.00;92.00;;;;;;912225;154;28162;-80
2022/12/11 08:00:57;;;;;;;18.60;13.57;;;3.00;92.00;;;;;;912102;154;27385;-80
2022/12/11 08:03:24;;;;;;;17.77;13.53;;;3.00;92.00;;;;;;912919;154;27358;-80
2022/12/11 08:05:50;;;;;;;16.90;13.20;;;3.00;92.00;;;;;;911444;154;27406;-79
2022/12/11 08:08:17;;;;;;;21.33;14.90;;;3.00;92.10;;;;;;908830;154;28423;-80
2022/12/11 08:10:43;;;;;;;17.30;14.20;;;3.10;92.20;;;;;;896547;157;27469;-80
2022/12/11 08:13:10;;;;;;;21.87;16.20;;;3.10;92.30;;;;;;896601;157;27417;-80
2022/12/11 08:15:37;;;;;;;20.67;13.77;;;3.10;92.40;;;;;;896426;157;27527;-80
2022/12/11 08:18:03;;;;;;;18.03;13.80;;;3.10;92.40;;;;;;896403;157;27469;-80
2022/12/11 08:20:30;;;;;;;19.80;14.20;;;3.20;92.50;;;;;;897033;157;27486;-80
2022/12/11 08:22:56;;;;;;;19.90;15.07;;;3.20;92.50;;;;;;896236;157;27875;-80
2022/12/11 08:25:23;;;;;;;18.57;14.20;;;3.20;92.40;;;;;;896961;157;27449;-80
2022/12/11 08:27:50;;;;;;;19.17;14.87;;;3.30;92.40;;;;;;896717;157;27378;-80
2022/12/11 08:30:16;;;;;;;18.33;14.80;;;3.30;92.30;;;;;;896300;157;27405;-80
2022/12/11 08:32:43;;;;;;;18.93;14.40;;;3.30;92.20;;;;;;895705;157;27532;-80
2022/12/11 08:35:09;;;;;;;20.93;14.93;;;3.30;92.20;;;;;;895416;157;27417;-80
2022/12/11 08:37:36;;;;;;;18.20;13.23;;;3.40;92.20;;;;;;885158;158;27516;-80
2022/12/11 08:40:02;;;;;;;19.67;14.43;;;3.40;92.20;;;;;;900848;156;27398;-80
2022/12/11 08:42:29;;;;;;;19.63;12.97;;;3.40;92.20;;;;;;900192;155;27426;-80
2022/12/11 08:44:56;;;;;;;17.30;13.10;;;3.40;92.10;;;;;;901153;155;27525;-80
2022/12/11 08:47:22;;;;;;;19.77;14.47;;;3.40;92.10;;;;;;900984;155;27812;-80
2022/12/11 08:49:49;;;;;;;18.00;13.50;;;3.50;92.10;;;;;;899480;156;27503;-80
2022/12/11 08:52:15;;;;;;;16.93;13.53;;;3.50;92.10;;;;;;900509;156;27357;-80
2022/12/11 08:54:42;;;;;;;19.27;14.63;;;3.50;92.10;;;;;;884691;158;27506;-80
2022/12/11 08:57:09;;;;;;;17.73;14.20;;;3.60;92.10;;;;;;896204;157;27416;-80
2022/12/11 08:59:35;;;;;;;17.20;13.90;;;3.60;92.20;;;;;;885205;158;27463;-80
2022/12/11 09:02:02;;;;;;;19.23;14.93;;;3.70;92.20;;;;;;920494;152;27422;-80
2022/12/11 09:04:28;;;;;;;18.47;14.43;;;3.70;92.10;;;;;;919924;152;27456;-80
2022/12/11 09:06:55;;;;;;;16.70;13.33;;;3.70;92.00;;;;;;919754;152;27338;-80
2022/12/11 09:09:22;;;;;;;20.93;14.80;;;3.80;91.90;;;;;;920767;152;27387;-80
2022/12/11 09:11:48;;;;;;;18.43;14.63;;;3.90;91.80;;;;;;922324;152;27490;-80
2022/12/11 09:14:15;;;;;;;23.33;16.50;;;3.90;91.70;;;;;;923656;152;27460;-80
2022/12/11 09:16:41;;;;;;;18.30;14.67;;;3.90;91.70;;;;;;922924;152;27396;-80
2022/12/11 09:19:08;;;;;;;19.87;15.63;;;3.90;91.60;;;;;;922469;152;27351;-80
2022/12/11 09:21:34;;;;;;;22.80;16.87;;;4.00;91.50;;;;;;923347;152;27492;-80
2022/12/11 09:24:01;;;;;;;21.00;15.20;;;4.00;91.30;;;;;;921909;152;27415;-80
2022/12/11 09:26:28;;;;;;;21.03;15.63;;;4.10;91.10;;;;;;922902;152;27495;-80
2022/12/11 09:28:54;;;;;;;23.97;17.13;;;4.10;91.00;;;;;;922092;152;27321;-80
2022/12/11 09:31:22;;;;;;;22.67;16.63;;;4.00;90.90;;;;;;922863;152;27887;-80
2022/12/11 09:33:47;;;;;;;20.63;15.63;;;4.10;90.80;;;;;;922786;152;27709;-80
2022/12/11 09:36:14;;;;;;;23.23;15.77;;;4.10;90.80;;;;;;904443;155;27453;-80
2022/12/11 09:38:42;;;;;;;18.43;14.90;;;4.00;90.70;;;;;;904896;155;27509;-80
2022/12/11 09:41:22;;;;;;;20.73;15.63;;;4.10;90.60;;;;;;904782;155;27900;-80
2022/12/11 09:43:52;;;;;;;17.43;14.63;;;4.10;90.50;;;;;;904051;155;27407;-80
2022/12/11 09:46:18;;;;;;;19.60;14.70;;;4.00;90.40;;;;;;904061;155;27348;-80
2022/12/11 09:48:45;;;;;;;19.40;14.27;;;4.00;90.30;;;;;;903597;155;27526;-80
2022/12/11 09:51:24;;;;;;;20.10;15.03;;;4.00;90.30;;;;;;904045;155;27861;-80
2022/12/11 09:53:50;;;;;;;20.50;14.70;;;4.00;90.30;;;;;;904645;155;27416;-80
2022/12/11 09:56:17;;;;;;;19.17;15.17;;;3.90;90.30;;;;;;903432;155;27414;-80
2022/12/11 09:59:02;;;;;;;20.57;15.30;;;3.90;90.40;;;;;;903560;155;27353;-80
2022/12/11 10:01:40;;;;;;;20.07;14.90;;;3.90;90.50;;;;;;902693;155;27515;-80
2022/12/11 10:04:21;;;;;;;21.30;16.13;;;3.90;90.60;;;;;;903489;155;27517;-80
2022/12/11 10:06:48;;;;;;;22.77;15.43;;;3.90;90.60;;;;;;904773;155;27425;-80
2022/12/11 10:09:36;;;;;;;22.90;17.33;;;3.90;90.60;;;;;;902919;155;27526;-80
2022/12/11 10:12:11;;;;;;;19.30;14.27;;;3.90;90.80;;;;;;887253;155;27708;-80
2022/12/11 10:14:47;;;;;;;23.33;16.57;;;4.00;90.90;;;;;;880724;160;27406;-80
2022/12/11 10:17:19;;;;;;;25.40;18.10;;;4.00;90.90;;;;;;884086;159;28263;-80
2022/12/11 10:19:46;;;;;;;26.97;17.40;;;4.00;90.90;;;;;;917850;153;27530;-79
2022/12/11 10:22:18;;;;;;;24.97;17.90;;;4.10;91.00;;;;;;884951;159;27359;-79
2022/12/11 10:24:45;;;;;;;24.53;17.10;;;4.10;91.00;;;;;;919608;153;27385;-79
2022/12/11 10:27:14;;;;;;;21.83;16.17;;;4.10;90.90;;;;;;916976;153;27329;-79
2022/12/11 10:29:41;;;;;;;21.77;16.57;;;4.20;90.90;;;;;;917536;153;27366;-79
2022/12/11 10:32:07;;;;;;;26.97;17.30;;;4.20;90.80;;;;;;919079;153;27321;-79
2022/12/11 10:34:34;;;;;;;27.27;19.73;;;4.30;90.80;;;;;;918329;154;27399;-79
2022/12/11 10:37:01;;;;;;;23.47;17.23;;;4.30;90.70;;;;;;899267;157;27350;-79
2022/12/11 10:39:27;;;;;;;25.13;17.67;;;4.30;90.60;;;;;;918842;153;27365;-79
2022/12/11 10:41:54;;;;;;;22.70;16.97;;;4.40;90.50;;;;;;885753;159;27511;-79
2022/12/11 10:44:26;;;;;;;22.23;16.50;;;4.40;90.60;;;;;;918783;153;27404;-79
2022/12/11 10:47:05;;;;;;;22.07;17.17;;;4.40;90.50;;;;;;919104;154;27361;-80
2022/12/11 10:49:34;;;;;;;23.93;16.63;;;4.50;90.50;;;;;;919197;153;27303;-80
2022/12/11 10:52:01;;;;;;;23.70;17.63;;;4.50;90.40;;;;;;919343;153;27373;-80
2022/12/11 10:54:33;;;;;;;39.70;28.27;;;4.50;90.30;;;;;;918477;153;27381;-80
2022/12/11 10:56:59;;;;;;;27.80;20.73;;;4.50;90.10;;;;;;919164;153;27298;-80
2022/12/11 10:59:29;;;;;;;25.30;18.93;;;4.50;90.10;;;;;;919363;154;27346;-80
2022/12/11 11:01:56;;;;;;;23.07;17.07;;;4.50;90.10;;;;;;918980;154;27419;-80
2022/12/11 11:04:31;;;;;;;23.20;17.30;;;4.50;90.00;;;;;;919084;154;27362;-80
2022/12/11 11:07:01;;;;;;;23.70;17.30;;;4.60;89.80;;;;;;919438;154;28197;-80
2022/12/11 11:09:30;;;;;;;22.90;17.13;;;4.60;89.90;;;;;;916055;153;27420;-80
2022/12/11 11:11:57;;;;;;;24.50;17.20;;;4.60;90.10;;;;;;921075;153;27535;-80
2022/12/11 11:14:23;;;;;;;24.27;17.73;;;4.60;90.20;;;;;;924376;153;27323;-80
2022/12/11 11:16:50;;;;;;;27.83;20.93;;;4.60;90.30;;;;;;905744;155;27558;-80
2022/12/11 11:19:28;;;;;;;24.37;18.13;;;4.60;90.40;;;;;;905335;155;27508;-80
2022/12/11 11:21:58;;;;;;;24.33;17.77;;;4.70;90.40;;;;;;904473;155;27368;-80
2022/12/11 11:24:39;;;;;;;24.07;16.87;;;4.70;90.30;;;;;;906179;155;27399;-80
2022/12/11 11:27:12;;;;;;;21.43;14.97;;;4.80;90.20;;;;;;905085;155;27459;-80
2022/12/11 11:29:38;;;;;;;21.37;15.30;;;4.80;90.10;;;;;;898419;155;27421;-80
2022/12/11 11:32:17;;;;;;;19.73;14.57;;;4.90;89.90;;;;;;922748;152;28386;-80
2022/12/11 11:34:44;;;;;;;19.70;15.23;;;4.90;89.40;;;;;;907513;155;27458;-80
2022/12/11 11:37:25;;;;;;;22.13;15.97;;;4.90;89.20;;;;;;906656;155;27353;-80
2022/12/11 11:39:52;;;;;;;19.20;14.63;;;4.90;88.90;;;;;;907491;155;27481;-80
2022/12/11 11:42:18;;;;;;;17.93;13.77;;;4.90;88.90;;;;;;906826;155;27799;-80
2022/12/11 11:44:45;;;;;;;18.07;13.60;;;4.90;88.60;;;;;;904687;155;27785;-80
2022/12/11 11:47:23;;;;;;;16.03;12.47;;;4.90;88.50;;;;;;904193;155;27424;-80
2022/12/11 11:49:59;;;;;;;19.43;12.90;;;4.90;88.20;;;;;;923130;152;27360;-80
2022/12/11 11:52:25;;;;;;;17.60;13.23;;;4.90;88.00;;;;;;923160;152;27374;-81
2022/12/11 11:55:08;;;;;;;19.20;15.57;;;4.90;87.90;;;;;;923308;152;27421;-80
2022/12/11 11:57:45;;;;;;;18.37;13.93;;;4.90;88.00;;;;;;904135;155;27439;-80
2022/12/11 12:00:14;;;;;;;19.80;14.83;;;4.90;88.00;;;;;;903984;155;28020;-80
2022/12/11 12:02:41;;;;;;;24.30;16.70;;;4.90;88.30;;;;;;904222;155;27502;-80
2022/12/11 12:05:13;;;;;;;19.20;14.20;;;4.90;88.30;;;;;;889093;158;27424;-81
2022/12/11 12:07:58;;;;;;;20.83;14.70;;;4.90;88.00;;;;;;923466;152;27445;-80
2022/12/11 12:10:40;;;;;;;19.67;14.77;;;4.90;88.00;;;;;;889054;158;27447;-80
2022/12/11 12:13:12;;;;;;;19.37;14.27;;;4.90;87.80;;;;;;920412;152;27488;-80
2022/12/11 12:15:53;;;;;;;21.17;14.73;;;4.90;87.70;;;;;;920013;152;27454;-80
2022/12/11 12:18:38;;;;;;;18.97;14.07;;;4.90;87.70;;;;;;920025;152;27488;-80
2022/12/11 12:21:16;;;;;;;17.80;12.37;;;4.90;87.60;;;;;;895170;152;27417;-80
2022/12/11 12:23:45;;;;;;;17.57;12.73;;;4.90;87.40;;;;;;918839;152;27500;-80
2022/12/11 12:26:27;;;;;;;16.33;12.33;;;4.90;87.10;;;;;;918871;152;27386;-80
2022/12/11 12:29:15;;;;;;;16.60;12.07;;;4.80;87.10;;;;;;920263;152;27469;-80
2022/12/11 12:31:56;;;;;;;14.37;9.80;;;4.80;87.10;;;;;;919658;152;27453;-80
2022/12/11 12:34:41;;;;;;;14.63;10.67;;;4.80;87.20;;;;;;919537;152;27346;-80
2022/12/11 12:37:29;;;;;;;16.93;11.33;;;4.80;87.50;;;;;;920923;152;28205;-80
2022/12/11 12:40:16;;;;;;;15.07;9.87;;;4.90;87.70;;;;;;920225;152;27370;-80
2022/12/11 12:43:10;;;;;;;13.10;10.03;;;4.90;87.50;;;;;;920151;152;27405;-80
2022/12/11 12:46:02;;;;;;;14.23;9.90;;;4.90;87.30;;;;;;919785;152;27516;-80
2022/12/11 12:48:28;;;;;;;14.30;11.57;;;5.00;87.40;;;;;;919920;152;27511;-80
2022/12/11 12:50:55;;;;;;;14.97;11.63;;;5.00;87.70;;;;;;920151;153;27506;-80
2022/12/11 12:53:24;;;;;;;13.97;10.17;;;5.00;87.90;;;;;;919698;153;27464;-80